sensor_id;sensor_type;location;lat;lon;timestamp;temperature;humidity
10133;DHT22;5106;50.926;7.080;2022-10-15T00:00:28;14.20;89.20
10133;DHT22;5106;50.926;7.080;2022-10-15T00:02:53;14.20;89.10
10133;DHT22;5106;50.926;7.080;2022-10-15T00:05:20;14.20;89.20
10133;DHT22;5106;50.926;7.080;2022-10-15T00:07:45;14.20;89.20
10133;DHT22;5106;50.926;7.080;2022-10-15T00:10:11;14.10;89.20
10133;DHT22;5106;50.926;7.080;2022-10-15T00:12:37;14.10;89.20
10133;DHT22;5106;50.926;7.080;2022-10-15T00:15:04;14.10;89.20
10133;DHT22;5106;50.926;7.080;2022-10-15T00:17:30;14.10;89.20
10133;DHT22;5106;50.926;7.080;2022-10-15T00:19:56;14.10;89.30
10133;DHT22;5106;50.926;7.080;2022-10-15T00:22:22;14.10;89.30
10133;DHT22;5106;50.926;7.080;2022-10-15T00:24:48;14.10;89.30
10133;DHT22;5106;50.926;7.080;2022-10-15T00:27:13;14.10;89.30
10133;DHT22;5106;50.926;7.080;2022-10-15T00:29:39;14.10;89.30
10133;DHT22;5106;50.926;7.080;2022-10-15T00:32:04;14.10;89.30
10133;DHT22;5106;50.926;7.080;2022-10-15T00:34:30;14.10;89.40
10133;DHT22;5106;50.926;7.080;2022-10-15T00:36:56;14.10;89.40
10133;DHT22;5106;50.926;7.080;2022-10-15T00:39:21;14.10;89.40
10133;DHT22;5106;50.926;7.080;2022-10-15T00:41:47;14.10;89.40
10133;DHT22;5106;50.926;7.080;2022-10-15T00:49:39;14.10;89.30
10133;DHT22;5106;50.926;7.080;2022-10-15T00:52:14;14.10;89.30
10133;DHT22;5106;50.926;7.080;2022-10-15T00:54:43;14.10;89.20
10133;DHT22;5106;50.926;7.080;2022-10-15T00:57:13;14.00;89.10
10133;DHT22;5106;50.926;7.080;2022-10-15T00:59:43;14.00;89.20
10133;DHT22;5106;50.926;7.080;2022-10-15T01:02:12;14.00;89.10
10133;DHT22;5106;50.926;7.080;2022-10-15T01:04:38;14.00;89.00
10133;DHT22;5106;50.926;7.080;2022-10-15T01:07:04;13.90;89.00
10133;DHT22;5106;50.926;7.080;2022-10-15T01:09:30;13.90;89.10
10133;DHT22;5106;50.926;7.080;2022-10-15T01:11:56;13.90;89.20
10133;DHT22;5106;50.926;7.080;2022-10-15T01:18:05;13.90;89.20
10133;DHT22;5106;50.926;7.080;2022-10-15T01:23:18;13.80;89.40
10133;DHT22;5106;50.926;7.080;2022-10-15T01:32:12;13.80;89.40
10133;DHT22;5106;50.926;7.080;2022-10-15T01:34:29;13.70;89.30
10133;DHT22;5106;50.926;7.080;2022-10-15T01:37:01;13.70;89.30
10133;DHT22;5106;50.926;7.080;2022-10-15T01:39:38;13.70;89.30
10133;DHT22;5106;50.926;7.080;2022-10-15T01:44:45;13.70;89.40
10133;DHT22;5106;50.926;7.080;2022-10-15T01:47:47;13.70;89.40
10133;DHT22;5106;50.926;7.080;2022-10-15T01:50:15;13.70;89.30
10133;DHT22;5106;50.926;7.080;2022-10-15T01:52:42;13.60;89.30
10133;DHT22;5106;50.926;7.080;2022-10-15T01:55:10;13.60;89.20
10133;DHT22;5106;50.926;7.080;2022-10-15T01:57:41;13.60;89.20
10133;DHT22;5106;50.926;7.080;2022-10-15T02:00:08;13.60;89.30
10133;DHT22;5106;50.926;7.080;2022-10-15T02:02:34;13.60;89.30
10133;DHT22;5106;50.926;7.080;2022-10-15T02:04:59;13.60;89.30
10133;DHT22;5106;50.926;7.080;2022-10-15T02:08:06;13.60;89.30
10133;DHT22;5106;50.926;7.080;2022-10-15T02:10:54;13.60;89.30
10133;DHT22;5106;50.926;7.080;2022-10-15T02:16:24;13.60;89.30
10133;DHT22;5106;50.926;7.080;2022-10-15T02:21:31;13.60;89.40
10133;DHT22;5106;50.926;7.080;2022-10-15T02:24:16;13.60;89.30
10133;DHT22;5106;50.926;7.080;2022-10-15T02:26:44;13.60;89.40
10133;DHT22;5106;50.926;7.080;2022-10-15T02:29:13;13.70;89.40
10133;DHT22;5106;50.926;7.080;2022-10-15T02:31:42;13.60;89.20
10133;DHT22;5106;50.926;7.080;2022-10-15T02:34:10;13.60;89.20
10133;DHT22;5106;50.926;7.080;2022-10-15T02:36:46;13.60;89.30
10133;DHT22;5106;50.926;7.080;2022-10-15T02:39:22;13.60;89.20
10133;DHT22;5106;50.926;7.080;2022-10-15T02:41:52;13.60;89.20
10133;DHT22;5106;50.926;7.080;2022-10-15T02:44:18;13.60;89.20
10133;DHT22;5106;50.926;7.080;2022-10-15T02:46:47;13.60;89.30
10133;DHT22;5106;50.926;7.080;2022-10-15T02:49:13;13.60;89.40
10133;DHT22;5106;50.926;7.080;2022-10-15T02:51:38;13.60;89.40
10133;DHT22;5106;50.926;7.080;2022-10-15T02:54:05;13.60;89.50
10133;DHT22;5106;50.926;7.080;2022-10-15T02:56:37;13.60;89.50
10133;DHT22;5106;50.926;7.080;2022-10-15T02:59:04;13.70;89.60
10133;DHT22;5106;50.926;7.080;2022-10-15T03:01:31;13.60;89.50
10133;DHT22;5106;50.926;7.080;2022-10-15T03:04:00;13.60;89.50
10133;DHT22;5106;50.926;7.080;2022-10-15T03:06:26;13.70;89.50
10133;DHT22;5106;50.926;7.080;2022-10-15T03:08:55;13.70;89.60
10133;DHT22;5106;50.926;7.080;2022-10-15T03:11:20;13.70;89.60
10133;DHT22;5106;50.926;7.080;2022-10-15T03:13:46;13.70;89.60
10133;DHT22;5106;50.926;7.080;2022-10-15T03:16:12;13.70;89.60
10133;DHT22;5106;50.926;7.080;2022-10-15T03:18:37;13.70;89.60
10133;DHT22;5106;50.926;7.080;2022-10-15T03:21:03;13.70;89.60
10133;DHT22;5106;50.926;7.080;2022-10-15T03:23:29;13.70;89.60
10133;DHT22;5106;50.926;7.080;2022-10-15T03:25:54;13.70;89.50
10133;DHT22;5106;50.926;7.080;2022-10-15T03:28:21;13.70;89.60
10133;DHT22;5106;50.926;7.080;2022-10-15T03:30:47;13.70;89.60
10133;DHT22;5106;50.926;7.080;2022-10-15T03:33:13;13.70;89.60
10133;DHT22;5106;50.926;7.080;2022-10-15T03:35:38;13.70;89.60
10133;DHT22;5106;50.926;7.080;2022-10-15T03:38:05;13.70;89.60
10133;DHT22;5106;50.926;7.080;2022-10-15T03:40:31;13.70;89.60
10133;DHT22;5106;50.926;7.080;2022-10-15T03:42:57;13.70;89.60
10133;DHT22;5106;50.926;7.080;2022-10-15T03:45:23;13.70;89.50
10133;DHT22;5106;50.926;7.080;2022-10-15T03:47:49;13.70;89.50
10133;DHT22;5106;50.926;7.080;2022-10-15T03:50:15;13.70;89.50
10133;DHT22;5106;50.926;7.080;2022-10-15T03:52:41;13.70;89.50
10133;DHT22;5106;50.926;7.080;2022-10-15T03:55:08;13.70;89.50
10133;DHT22;5106;50.926;7.080;2022-10-15T03:57:34;13.70;89.40
10133;DHT22;5106;50.926;7.080;2022-10-15T04:00:00;13.60;89.40
10133;DHT22;5106;50.926;7.080;2022-10-15T04:02:26;13.60;89.40
10133;DHT22;5106;50.926;7.080;2022-10-15T04:04:52;13.60;89.40
10133;DHT22;5106;50.926;7.080;2022-10-15T04:07:19;13.60;89.40
10133;DHT22;5106;50.926;7.080;2022-10-15T04:09:45;13.60;89.40
10133;DHT22;5106;50.926;7.080;2022-10-15T04:12:10;13.60;89.40
10133;DHT22;5106;50.926;7.080;2022-10-15T04:14:36;13.60;89.40
10133;DHT22;5106;50.926;7.080;2022-10-15T04:17:01;13.60;89.40
10133;DHT22;5106;50.926;7.080;2022-10-15T04:19:27;13.60;89.40
10133;DHT22;5106;50.926;7.080;2022-10-15T04:21:53;13.60;89.50
10133;DHT22;5106;50.926;7.080;2022-10-15T04:24:18;13.60;89.50
10133;DHT22;5106;50.926;7.080;2022-10-15T04:26:44;13.60;89.50
10133;DHT22;5106;50.926;7.080;2022-10-15T04:29:10;13.70;89.50
10133;DHT22;5106;50.926;7.080;2022-10-15T04:31:35;13.70;89.50
10133;DHT22;5106;50.926;7.080;2022-10-15T04:34:02;13.70;89.60
10133;DHT22;5106;50.926;7.080;2022-10-15T04:36:28;13.70;89.60
10133;DHT22;5106;50.926;7.080;2022-10-15T04:38:53;13.70;89.60
10133;DHT22;5106;50.926;7.080;2022-10-15T04:41:19;13.70;89.60
10133;DHT22;5106;50.926;7.080;2022-10-15T04:43:44;13.70;89.60
10133;DHT22;5106;50.926;7.080;2022-10-15T04:46:10;13.70;89.60
10133;DHT22;5106;50.926;7.080;2022-10-15T04:48:37;13.70;89.60
10133;DHT22;5106;50.926;7.080;2022-10-15T04:51:11;13.70;89.60
10133;DHT22;5106;50.926;7.080;2022-10-15T04:53:37;13.70;89.70
10133;DHT22;5106;50.926;7.080;2022-10-15T04:56:05;13.70;89.70
10133;DHT22;5106;50.926;7.080;2022-10-15T04:58:32;13.70;89.70
10133;DHT22;5106;50.926;7.080;2022-10-15T05:01:10;13.80;89.80
10133;DHT22;5106;50.926;7.080;2022-10-15T05:03:37;13.80;89.70
10133;DHT22;5106;50.926;7.080;2022-10-15T05:06:05;13.80;89.60
10133;DHT22;5106;50.926;7.080;2022-10-15T05:08:32;13.70;89.50
10133;DHT22;5106;50.926;7.080;2022-10-15T05:11:06;13.70;89.50
10133;DHT22;5106;50.926;7.080;2022-10-15T05:13:33;13.70;89.60
10133;DHT22;5106;50.926;7.080;2022-10-15T05:16:28;13.70;89.60
10133;DHT22;5106;50.926;7.080;2022-10-15T05:19:02;13.70;89.60
10133;DHT22;5106;50.926;7.080;2022-10-15T05:21:29;13.70;89.60
10133;DHT22;5106;50.926;7.080;2022-10-15T05:23:56;13.70;89.70
10133;DHT22;5106;50.926;7.080;2022-10-15T05:26:24;13.70;89.70
10133;DHT22;5106;50.926;7.080;2022-10-15T05:28:50;13.80;89.70
10133;DHT22;5106;50.926;7.080;2022-10-15T05:31:18;13.80;89.70
10133;DHT22;5106;50.926;7.080;2022-10-15T05:33:44;13.80;89.70
10133;DHT22;5106;50.926;7.080;2022-10-15T05:36:13;13.80;89.70
10133;DHT22;5106;50.926;7.080;2022-10-15T05:38:39;13.80;89.70
10133;DHT22;5106;50.926;7.080;2022-10-15T05:41:05;13.80;89.70
10133;DHT22;5106;50.926;7.080;2022-10-15T05:43:31;13.80;89.80
10133;DHT22;5106;50.926;7.080;2022-10-15T05:45:56;13.80;89.80
10133;DHT22;5106;50.926;7.080;2022-10-15T05:48:22;13.80;89.60
10133;DHT22;5106;50.926;7.080;2022-10-15T05:50:48;13.80;89.70
10133;DHT22;5106;50.926;7.080;2022-10-15T05:53:14;13.80;89.60
10133;DHT22;5106;50.926;7.080;2022-10-15T05:55:39;13.80;89.60
10133;DHT22;5106;50.926;7.080;2022-10-15T05:58:05;13.80;89.60
10133;DHT22;5106;50.926;7.080;2022-10-15T06:00:31;13.80;89.50
10133;DHT22;5106;50.926;7.080;2022-10-15T06:02:57;13.80;89.60
10133;DHT22;5106;50.926;7.080;2022-10-15T06:05:23;13.80;89.60
10133;DHT22;5106;50.926;7.080;2022-10-15T06:07:49;13.80;89.60
10133;DHT22;5106;50.926;7.080;2022-10-15T06:10:15;13.80;89.60
10133;DHT22;5106;50.926;7.080;2022-10-15T06:12:41;13.80;89.60
10133;DHT22;5106;50.926;7.080;2022-10-15T06:15:07;13.80;89.60
10133;DHT22;5106;50.926;7.080;2022-10-15T06:17:33;13.80;89.60
10133;DHT22;5106;50.926;7.080;2022-10-15T06:19:58;13.80;89.60
10133;DHT22;5106;50.926;7.080;2022-10-15T06:22:24;13.80;89.60
10133;DHT22;5106;50.926;7.080;2022-10-15T06:24:49;13.80;89.60
10133;DHT22;5106;50.926;7.080;2022-10-15T06:27:15;13.80;89.70
10133;DHT22;5106;50.926;7.080;2022-10-15T06:29:41;13.70;89.60
10133;DHT22;5106;50.926;7.080;2022-10-15T06:32:10;13.70;89.60
10133;DHT22;5106;50.926;7.080;2022-10-15T06:34:36;13.70;89.60
10133;DHT22;5106;50.926;7.080;2022-10-15T06:37:02;13.70;89.60
10133;DHT22;5106;50.926;7.080;2022-10-15T06:39:27;13.70;89.50
10133;DHT22;5106;50.926;7.080;2022-10-15T06:41:53;13.60;89.50
10133;DHT22;5106;50.926;7.080;2022-10-15T06:44:18;13.60;89.40
10133;DHT22;5106;50.926;7.080;2022-10-15T06:46:44;13.60;89.40
10133;DHT22;5106;50.926;7.080;2022-10-15T06:49:10;13.60;89.40
10133;DHT22;5106;50.926;7.080;2022-10-15T06:51:35;13.60;89.40
10133;DHT22;5106;50.926;7.080;2022-10-15T06:54:02;13.60;89.40
10133;DHT22;5106;50.926;7.080;2022-10-15T06:56:28;13.60;89.50
10133;DHT22;5106;50.926;7.080;2022-10-15T06:58:53;13.60;89.50
10133;DHT22;5106;50.926;7.080;2022-10-15T07:01:19;13.60;89.50
10133;DHT22;5106;50.926;7.080;2022-10-15T07:03:48;13.70;89.40
10133;DHT22;5106;50.926;7.080;2022-10-15T07:06:14;13.70;89.50
10133;DHT22;5106;50.926;7.080;2022-10-15T07:08:40;13.80;89.50
10133;DHT22;5106;50.926;7.080;2022-10-15T07:11:07;13.80;89.40
10133;DHT22;5106;50.926;7.080;2022-10-15T07:13:33;13.80;89.50
10133;DHT22;5106;50.926;7.080;2022-10-15T07:16:06;13.80;89.40
10133;DHT22;5106;50.926;7.080;2022-10-15T07:18:32;13.90;89.40
10133;DHT22;5106;50.926;7.080;2022-10-15T07:20:58;13.90;89.40
10133;DHT22;5106;50.926;7.080;2022-10-15T07:23:24;13.90;89.40
10133;DHT22;5106;50.926;7.080;2022-10-15T07:25:49;14.00;89.40
10133;DHT22;5106;50.926;7.080;2022-10-15T07:28:15;14.00;89.30
10133;DHT22;5106;50.926;7.080;2022-10-15T07:30:41;14.00;89.40
10133;DHT22;5106;50.926;7.080;2022-10-15T07:33:06;14.00;89.30
10133;DHT22;5106;50.926;7.080;2022-10-15T07:35:32;14.10;89.30
10133;DHT22;5106;50.926;7.080;2022-10-15T07:38:02;14.10;89.20
10133;DHT22;5106;50.926;7.080;2022-10-15T07:40:28;14.10;89.20
10133;DHT22;5106;50.926;7.080;2022-10-15T07:42:55;14.20;89.20
10133;DHT22;5106;50.926;7.080;2022-10-15T07:45:22;14.20;89.10
10133;DHT22;5106;50.926;7.080;2022-10-15T07:47:48;14.20;89.10
10133;DHT22;5106;50.926;7.080;2022-10-15T07:50:14;14.20;89.10
10133;DHT22;5106;50.926;7.080;2022-10-15T07:52:40;14.30;89.10
10133;DHT22;5106;50.926;7.080;2022-10-15T07:55:06;14.30;89.10
10133;DHT22;5106;50.926;7.080;2022-10-15T07:57:32;14.40;89.10
10133;DHT22;5106;50.926;7.080;2022-10-15T07:59:58;14.50;89.20
10133;DHT22;5106;50.926;7.080;2022-10-15T08:02:23;14.60;89.10
10133;DHT22;5106;50.926;7.080;2022-10-15T08:04:49;14.70;89.00
10133;DHT22;5106;50.926;7.080;2022-10-15T08:07:15;14.70;88.90
10133;DHT22;5106;50.926;7.080;2022-10-15T08:09:40;14.70;88.80
10133;DHT22;5106;50.926;7.080;2022-10-15T08:12:06;14.80;88.60
10133;DHT22;5106;50.926;7.080;2022-10-15T08:14:33;14.80;88.60
10133;DHT22;5106;50.926;7.080;2022-10-15T08:17:00;14.90;88.60
10133;DHT22;5106;50.926;7.080;2022-10-15T08:19:26;14.90;88.50
10133;DHT22;5106;50.926;7.080;2022-10-15T08:21:52;14.90;88.40
10133;DHT22;5106;50.926;7.080;2022-10-15T08:24:18;15.00;88.40
10133;DHT22;5106;50.926;7.080;2022-10-15T08:26:43;15.00;88.30
10133;DHT22;5106;50.926;7.080;2022-10-15T08:29:10;15.00;88.20
10133;DHT22;5106;50.926;7.080;2022-10-15T08:31:38;15.10;88.20
10133;DHT22;5106;50.926;7.080;2022-10-15T08:34:04;15.10;88.10
10133;DHT22;5106;50.926;7.080;2022-10-15T08:36:30;15.20;87.90
10133;DHT22;5106;50.926;7.080;2022-10-15T08:38:56;15.20;88.00
10133;DHT22;5106;50.926;7.080;2022-10-15T08:44:06;15.30;87.70
10133;DHT22;5106;50.926;7.080;2022-10-15T08:46:39;15.40;87.50
10133;DHT22;5106;50.926;7.080;2022-10-15T08:49:15;15.40;87.30
10133;DHT22;5106;50.926;7.080;2022-10-15T08:51:47;15.50;87.20
10133;DHT22;5106;50.926;7.080;2022-10-15T08:54:16;15.50;87.20
10133;DHT22;5106;50.926;7.080;2022-10-15T08:56:48;15.60;87.00
10133;DHT22;5106;50.926;7.080;2022-10-15T08:59:25;15.60;87.00
10133;DHT22;5106;50.926;7.080;2022-10-15T09:02:12;15.60;86.90
10133;DHT22;5106;50.926;7.080;2022-10-15T09:05:18;15.70;86.70
10133;DHT22;5106;50.926;7.080;2022-10-15T09:08:17;15.80;86.50
10133;DHT22;5106;50.926;7.080;2022-10-15T09:10:46;15.80;86.30
10133;DHT22;5106;50.926;7.080;2022-10-15T09:13:23;15.80;86.30
10133;DHT22;5106;50.926;7.080;2022-10-15T09:15:59;15.80;86.40
10133;DHT22;5106;50.926;7.080;2022-10-15T09:18:32;15.90;86.20
10133;DHT22;5106;50.926;7.080;2022-10-15T09:21:01;15.90;86.10
10133;DHT22;5106;50.926;7.080;2022-10-15T09:23:28;15.90;86.00
10133;DHT22;5106;50.926;7.080;2022-10-15T09:29:14;16.00;86.00
10133;DHT22;5106;50.926;7.080;2022-10-15T09:31:51;16.00;85.90
10133;DHT22;5106;50.926;7.080;2022-10-15T09:34:26;16.10;86.00
10133;DHT22;5106;50.926;7.080;2022-10-15T09:36:57;16.10;86.10
10133;DHT22;5106;50.926;7.080;2022-10-15T09:42:30;16.20;86.00
10133;DHT22;5106;50.926;7.080;2022-10-15T09:45:01;16.20;86.10
10133;DHT22;5106;50.926;7.080;2022-10-15T09:47:30;16.20;85.90
10133;DHT22;5106;50.926;7.080;2022-10-15T09:49:56;16.30;85.90
10133;DHT22;5106;50.926;7.080;2022-10-15T09:57:22;16.30;86.00
10133;DHT22;5106;50.926;7.080;2022-10-15T09:59:56;16.30;85.90
10133;DHT22;5106;50.926;7.080;2022-10-15T10:02:23;16.30;85.90
10133;DHT22;5106;50.926;7.080;2022-10-15T10:04:50;16.40;86.00
10133;DHT22;5106;50.926;7.080;2022-10-15T10:07:36;16.40;86.00
10133;DHT22;5106;50.926;7.080;2022-10-15T10:10:27;16.50;86.10
10133;DHT22;5106;50.926;7.080;2022-10-15T10:12:55;16.60;86.00
10133;DHT22;5106;50.926;7.080;2022-10-15T10:18:04;16.60;86.00
10133;DHT22;5106;50.926;7.080;2022-10-15T10:20:32;16.70;85.80
10133;DHT22;5106;50.926;7.080;2022-10-15T10:23:08;16.70;85.80
10133;DHT22;5106;50.926;7.080;2022-10-15T10:25:44;16.80;85.70
10133;DHT22;5106;50.926;7.080;2022-10-15T10:30:58;16.90;85.70
10133;DHT22;5106;50.926;7.080;2022-10-15T10:33:46;17.00;85.80
10133;DHT22;5106;50.926;7.080;2022-10-15T10:41:23;17.30;85.50
10133;DHT22;5106;50.926;7.080;2022-10-15T10:43:53;17.40;85.30
10133;DHT22;5106;50.926;7.080;2022-10-15T10:46:21;17.60;85.20
10133;DHT22;5106;50.926;7.080;2022-10-15T10:48:50;17.70;85.10
10133;DHT22;5106;50.926;7.080;2022-10-15T10:51:27;17.80;85.10
10133;DHT22;5106;50.926;7.080;2022-10-15T10:54:04;17.80;84.20
10133;DHT22;5106;50.926;7.080;2022-10-15T10:59:03;17.90;84.10
10133;DHT22;5106;50.926;7.080;2022-10-15T11:01:34;18.00;84.00
10133;DHT22;5106;50.926;7.080;2022-10-15T11:04:00;18.00;83.80
10133;DHT22;5106;50.926;7.080;2022-10-15T11:09:18;18.10;83.60
10133;DHT22;5106;50.926;7.080;2022-10-15T11:12:19;18.10;83.60
10133;DHT22;5106;50.926;7.080;2022-10-15T11:26:33;18.10;83.80
10133;DHT22;5106;50.926;7.080;2022-10-15T11:32:03;18.10;83.80
10133;DHT22;5106;50.926;7.080;2022-10-15T11:42:52;18.10;83.80
10133;DHT22;5106;50.926;7.080;2022-10-15T11:45:43;18.10;83.80
10133;DHT22;5106;50.926;7.080;2022-10-15T11:48:33;18.20;83.70
10133;DHT22;5106;50.926;7.080;2022-10-15T11:51:22;18.20;83.60
10133;DHT22;5106;50.926;7.080;2022-10-15T11:56:47;18.30;83.60
10133;DHT22;5106;50.926;7.080;2022-10-15T11:59:33;18.40;83.40
10133;DHT22;5106;50.926;7.080;2022-10-15T12:02:16;18.50;83.20
10133;DHT22;5106;50.926;7.080;2022-10-15T12:05:18;18.50;83.00
10133;DHT22;5106;50.926;7.080;2022-10-15T12:07:47;18.50;83.00
10133;DHT22;5106;50.926;7.080;2022-10-15T12:13:15;18.50;83.10
10133;DHT22;5106;50.926;7.080;2022-10-15T12:16:12;18.50;82.70
10133;DHT22;5106;50.926;7.080;2022-10-15T12:18:46;18.50;82.60
10133;DHT22;5106;50.926;7.080;2022-10-15T12:21:37;18.60;82.40
10133;DHT22;5106;50.926;7.080;2022-10-15T12:24:05;18.60;82.80
10133;DHT22;5106;50.926;7.080;2022-10-15T12:26:49;18.60;82.50
10133;DHT22;5106;50.926;7.080;2022-10-15T12:29:23;18.70;82.40
10133;DHT22;5106;50.926;7.080;2022-10-15T12:31:53;18.70;82.30
10133;DHT22;5106;50.926;7.080;2022-10-15T12:34:35;18.80;82.20
10133;DHT22;5106;50.926;7.080;2022-10-15T12:37:12;18.90;82.20
10133;DHT22;5106;50.926;7.080;2022-10-15T12:39:41;19.00;81.60
10133;DHT22;5106;50.926;7.080;2022-10-15T12:44:55;19.10;82.10
10133;DHT22;5106;50.926;7.080;2022-10-15T12:47:52;19.20;80.90
10133;DHT22;5106;50.926;7.080;2022-10-15T12:50:25;19.20;81.10
10133;DHT22;5106;50.926;7.080;2022-10-15T12:52:58;19.20;81.40
10133;DHT22;5106;50.926;7.080;2022-10-15T12:57:54;19.20;81.90
10133;DHT22;5106;50.926;7.080;2022-10-15T13:00:27;19.30;81.90
10133;DHT22;5106;50.926;7.080;2022-10-15T13:02:55;19.30;81.40
10133;DHT22;5106;50.926;7.080;2022-10-15T13:05:34;19.40;81.40
10133;DHT22;5106;50.926;7.080;2022-10-15T13:08:02;19.50;80.90
10133;DHT22;5106;50.926;7.080;2022-10-15T13:10:33;19.50;81.10
10133;DHT22;5106;50.926;7.080;2022-10-15T13:13:04;19.60;81.30
10133;DHT22;5106;50.926;7.080;2022-10-15T13:15:31;19.70;80.80
10133;DHT22;5106;50.926;7.080;2022-10-15T13:18:03;19.80;80.00
10133;DHT22;5106;50.926;7.080;2022-10-15T13:20:39;19.90;80.80
10133;DHT22;5106;50.926;7.080;2022-10-15T13:23:13;20.00;80.60
10133;DHT22;5106;50.926;7.080;2022-10-15T13:25:40;20.10;80.20
10133;DHT22;5106;50.926;7.080;2022-10-15T13:28:30;20.10;79.70
10133;DHT22;5106;50.926;7.080;2022-10-15T13:30:56;20.10;79.60
10133;DHT22;5106;50.926;7.080;2022-10-15T13:33:23;20.10;79.10
10133;DHT22;5106;50.926;7.080;2022-10-15T13:35:48;20.10;79.00
10133;DHT22;5106;50.926;7.080;2022-10-15T13:38:22;20.00;79.20
10133;DHT22;5106;50.926;7.080;2022-10-15T13:40:50;20.10;79.60
10133;DHT22;5106;50.926;7.080;2022-10-15T13:43:26;20.00;79.80
10133;DHT22;5106;50.926;7.080;2022-10-15T13:45:57;20.10;79.90
10133;DHT22;5106;50.926;7.080;2022-10-15T13:48:26;20.10;80.30
10133;DHT22;5106;50.926;7.080;2022-10-15T13:50:54;20.10;80.40
10133;DHT22;5106;50.926;7.080;2022-10-15T13:53:26;20.10;80.50
10133;DHT22;5106;50.926;7.080;2022-10-15T13:55:55;20.10;79.70
10133;DHT22;5106;50.926;7.080;2022-10-15T13:58:26;20.10;80.20
10133;DHT22;5106;50.926;7.080;2022-10-15T14:01:15;20.10;79.90
10133;DHT22;5106;50.926;7.080;2022-10-15T14:08:46;19.90;80.20
10133;DHT22;5106;50.926;7.080;2022-10-15T14:11:13;19.80;80.50
10133;DHT22;5106;50.926;7.080;2022-10-15T14:13:45;19.60;81.10
10133;DHT22;5106;50.926;7.080;2022-10-15T14:16:17;19.50;81.90
10133;DHT22;5106;50.926;7.080;2022-10-15T14:18:54;19.40;81.50
10133;DHT22;5106;50.926;7.080;2022-10-15T14:21:23;19.30;81.80
10133;DHT22;5106;50.926;7.080;2022-10-15T14:24:19;19.40;81.90
10133;DHT22;5106;50.926;7.080;2022-10-15T14:26:46;19.40;81.90
10133;DHT22;5106;50.926;7.080;2022-10-15T14:29:15;19.40;82.20
10133;DHT22;5106;50.926;7.080;2022-10-15T14:31:46;19.40;82.20
10133;DHT22;5106;50.926;7.080;2022-10-15T14:37:01;19.50;82.20
10133;DHT22;5106;50.926;7.080;2022-10-15T14:39:35;19.50;82.50
10133;DHT22;5106;50.926;7.080;2022-10-15T14:42:06;19.50;82.70
10133;DHT22;5106;50.926;7.080;2022-10-15T14:44:50;19.50;82.50
10133;DHT22;5106;50.926;7.080;2022-10-15T14:47:25;19.50;82.50
10133;DHT22;5106;50.926;7.080;2022-10-15T14:49:56;19.50;82.50
10133;DHT22;5106;50.926;7.080;2022-10-15T14:52:27;19.40;82.50
10133;DHT22;5106;50.926;7.080;2022-10-15T14:55:11;19.40;82.70
10133;DHT22;5106;50.926;7.080;2022-10-15T14:57:40;19.40;82.70
10133;DHT22;5106;50.926;7.080;2022-10-15T15:00:33;19.40;82.70
10133;DHT22;5106;50.926;7.080;2022-10-15T15:03:06;19.40;82.50
10133;DHT22;5106;50.926;7.080;2022-10-15T15:05:47;19.40;82.50
10133;DHT22;5106;50.926;7.080;2022-10-15T15:08:13;19.40;82.50
10133;DHT22;5106;50.926;7.080;2022-10-15T15:10:39;19.30;82.30
10133;DHT22;5106;50.926;7.080;2022-10-15T15:13:05;19.30;82.50
10133;DHT22;5106;50.926;7.080;2022-10-15T15:15:30;19.40;82.50
10133;DHT22;5106;50.926;7.080;2022-10-15T15:17:56;19.40;82.50
10133;DHT22;5106;50.926;7.080;2022-10-15T15:20:22;19.40;81.70
10133;DHT22;5106;50.926;7.080;2022-10-15T15:22:50;19.40;81.40
10133;DHT22;5106;50.926;7.080;2022-10-15T15:25:27;19.30;81.20
10133;DHT22;5106;50.926;7.080;2022-10-15T15:27:53;19.30;81.20
10133;DHT22;5106;50.926;7.080;2022-10-15T15:30:21;19.30;81.10
10133;DHT22;5106;50.926;7.080;2022-10-15T15:32:47;19.30;80.90
10133;DHT22;5106;50.926;7.080;2022-10-15T15:35:38;19.30;81.00
10133;DHT22;5106;50.926;7.080;2022-10-15T15:38:08;19.00;82.60
10133;DHT22;5106;50.926;7.080;2022-10-15T15:40:34;18.60;83.00
10133;DHT22;5106;50.926;7.080;2022-10-15T15:43:01;18.20;83.40
10133;DHT22;5106;50.926;7.080;2022-10-15T15:45:27;17.80;83.90
10133;DHT22;5106;50.926;7.080;2022-10-15T15:47:53;17.50;84.20
10133;DHT22;5106;50.926;7.080;2022-10-15T15:50:23;17.30;84.40
10133;DHT22;5106;50.926;7.080;2022-10-15T15:52:49;17.10;84.90
10133;DHT22;5106;50.926;7.080;2022-10-15T15:55:15;17.00;85.30
10133;DHT22;5106;50.926;7.080;2022-10-15T15:57:41;16.90;85.40
10133;DHT22;5106;50.926;7.080;2022-10-15T16:00:08;16.90;85.60
10133;DHT22;5106;50.926;7.080;2022-10-15T16:02:35;16.80;85.80
10133;DHT22;5106;50.926;7.080;2022-10-15T16:05:01;16.70;86.00
10133;DHT22;5106;50.926;7.080;2022-10-15T16:07:27;16.70;86.10
10133;DHT22;5106;50.926;7.080;2022-10-15T16:09:53;16.60;86.20
10133;DHT22;5106;50.926;7.080;2022-10-15T16:12:18;16.60;86.30
10133;DHT22;5106;50.926;7.080;2022-10-15T16:14:44;16.50;86.40
10133;DHT22;5106;50.926;7.080;2022-10-15T16:17:10;16.50;86.50
10133;DHT22;5106;50.926;7.080;2022-10-15T16:19:36;16.50;86.70
10133;DHT22;5106;50.926;7.080;2022-10-15T16:22:02;16.50;86.70
10133;DHT22;5106;50.926;7.080;2022-10-15T16:24:27;16.50;86.60
10133;DHT22;5106;50.926;7.080;2022-10-15T16:26:53;16.50;86.50
10133;DHT22;5106;50.926;7.080;2022-10-15T16:29:19;16.40;86.50
10133;DHT22;5106;50.926;7.080;2022-10-15T16:31:44;16.40;86.60
10133;DHT22;5106;50.926;7.080;2022-10-15T16:34:10;16.40;86.30
10133;DHT22;5106;50.926;7.080;2022-10-15T16:36:36;16.40;86.40
10133;DHT22;5106;50.926;7.080;2022-10-15T16:39:02;16.40;86.50
10133;DHT22;5106;50.926;7.080;2022-10-15T16:41:28;16.40;86.40
10133;DHT22;5106;50.926;7.080;2022-10-15T16:43:54;16.40;86.30
10133;DHT22;5106;50.926;7.080;2022-10-15T16:46:20;16.30;86.20
10133;DHT22;5106;50.926;7.080;2022-10-15T16:48:51;16.30;86.20
10133;DHT22;5106;50.926;7.080;2022-10-15T16:51:17;16.30;86.10
10133;DHT22;5106;50.926;7.080;2022-10-15T16:53:45;16.30;86.00
10133;DHT22;5106;50.926;7.080;2022-10-15T16:56:30;16.30;85.90
10133;DHT22;5106;50.926;7.080;2022-10-15T16:58:56;16.30;85.90
10133;DHT22;5106;50.926;7.080;2022-10-15T17:01:25;16.20;85.90
10133;DHT22;5106;50.926;7.080;2022-10-15T17:03:51;16.20;86.00
10133;DHT22;5106;50.926;7.080;2022-10-15T17:06:20;16.20;86.10
10133;DHT22;5106;50.926;7.080;2022-10-15T17:08:53;16.20;86.10
10133;DHT22;5106;50.926;7.080;2022-10-15T17:11:23;16.10;86.10
10133;DHT22;5106;50.926;7.080;2022-10-15T17:13:51;16.20;86.00
10133;DHT22;5106;50.926;7.080;2022-10-15T17:18:51;16.10;85.80
10133;DHT22;5106;50.926;7.080;2022-10-15T17:21:19;16.10;85.60
10133;DHT22;5106;50.926;7.080;2022-10-15T17:23:50;16.10;85.30
10133;DHT22;5106;50.926;7.080;2022-10-15T17:26:18;16.10;85.10
10133;DHT22;5106;50.926;7.080;2022-10-15T17:28:46;16.00;85.30
10133;DHT22;5106;50.926;7.080;2022-10-15T17:31:18;16.00;85.30
10133;DHT22;5106;50.926;7.080;2022-10-15T17:33:44;16.00;84.90
10133;DHT22;5106;50.926;7.080;2022-10-15T17:36:15;16.00;84.80
10133;DHT22;5106;50.926;7.080;2022-10-15T17:38:41;16.00;85.00
10133;DHT22;5106;50.926;7.080;2022-10-15T17:41:11;15.90;84.70